Time;durP1;ratioP1;P1;durP2;ratioP2;P2;SDS_P1;SDS_P2;PMS_P1;PMS_P2;Temp;Humidity;BMP_temperature;BMP_pressure;BME280_temperature;BME280_humidity;BME280_pressure;Samples;Min_cycle;Max_cycle;Signal;HPM_P1;HPM_P2
2021/10/17 00:01:36;;;;;;;;;26.50;22.00;;;;;11.96;63.22;101655.59;4999119;28;45290;-58
2021/10/17 00:04:01;;;;;;;;;27.00;21.00;;;;;11.93;63.41;101653.06;5001560;28;45389;-58
2021/10/17 00:06:28;;;;;;;;;25.75;23.25;;;;;11.91;63.26;101654.81;5001632;28;45361;-58
2021/10/17 00:08:57;;;;;;;;;23.25;22.00;;;;;11.90;63.79;101650.50;5002538;28;45298;-58
2021/10/17 00:11:24;;;;;;;;;23.25;21.50;;;;;11.84;63.54;101646.28;5001354;28;46235;-58
2021/10/17 00:13:50;;;;;;;;;12.75;12.75;;;;;11.83;63.81;101644.56;5000773;28;45293;-58
2021/10/17 00:16:15;;;;;;;;;22.50;22.00;;;;;11.79;63.99;101640.28;5001577;28;45474;-58
2021/10/17 00:18:41;;;;;;;;;25.25;20.75;;;;;11.77;63.85;101646.38;5001631;28;45389;-57
2021/10/17 00:21:06;;;;;;;;;21.50;21.50;;;;;11.73;64.29;101642.09;5001452;28;45258;-57
2021/10/17 00:23:32;;;;;;;;;27.00;21.75;;;;;11.69;64.60;101648.25;5001543;28;45501;-58
2021/10/17 00:25:57;;;;;;;;;26.50;20.00;;;;;11.65;64.64;101642.25;5000042;28;45655;-58
2021/10/17 00:28:23;;;;;;;;;33.00;24.50;;;;;11.63;64.99;101646.63;5001567;28;45400;-58
2021/10/17 00:30:48;;;;;;;;;31.00;22.50;;;;;11.63;64.78;101641.41;5000983;28;45419;-58
2021/10/17 00:33:13;;;;;;;;;23.00;19.75;;;;;11.64;64.45;101650.94;5001573;28;45254;-56
2021/10/17 00:35:40;;;;;;;;;34.25;27.50;;;;;11.62;65.14;101655.31;4987126;28;45415;-56
2021/10/17 00:38:06;;;;;;;;;31.75;22.75;;;;;11.58;64.49;101651.03;5008516;28;45352;-56
2021/10/17 00:40:31;;;;;;;;;26.75;21.25;;;;;11.53;65.07;101651.13;5000398;28;45346;-56
2021/10/17 00:42:56;;;;;;;;;25.50;22.75;;;;;11.48;65.52;101647.75;5001509;28;45312;-56
2021/10/17 00:45:27;;;;;;;;;20.00;15.25;;;;;11.44;65.35;101648.69;5000342;28;45899;-57
2021/10/17 00:47:54;;;;;;;;;28.00;24.25;;;;;11.42;65.47;101654.78;4999824;28;45393;-56
2021/10/17 00:50:19;;;;;;;;;27.50;23.00;;;;;11.40;65.85;101653.94;4999302;28;46338;-56
2021/10/17 00:52:45;;;;;;;;;24.75;24.00;;;;;11.38;66.14;101656.56;5001026;28;45333;-56
2021/10/17 00:55:13;;;;;;;;;23.75;21.75;;;;;11.37;65.75;101654.00;4999336;28;45287;-56
2021/10/17 00:57:40;;;;;;;;;11.50;9.00;;;;;11.35;65.98;101647.94;4995609;28;45196;-56
2021/10/17 01:00:07;;;;;;;;;27.75;22.25;;;;;11.35;65.95;101635.81;4998679;28;46865;-55
2021/10/17 01:02:32;;;;;;;;;26.25;24.00;;;;;11.35;66.43;101633.19;4993441;28;45927;-56
2021/10/17 01:04:59;;;;;;;;;28.25;25.25;;;;;11.36;66.35;101634.06;4998431;28;45274;-56
2021/10/17 01:07:24;;;;;;;;;32.00;23.00;;;;;11.33;66.37;101640.16;4999390;28;45497;-56
2021/10/17 01:09:50;;;;;;;;;24.75;20.50;;;;;11.31;66.42;101630.69;4998772;28;46237;-56
2021/10/17 01:12:15;;;;;;;;;26.50;23.00;;;;;11.29;66.81;101633.31;4997711;28;45458;-59
2021/10/17 01:14:40;;;;;;;;;22.50;20.00;;;;;11.26;67.00;101631.63;4998243;28;45369;-59
2021/10/17 01:17:06;;;;;;;;;28.00;23.75;;;;;11.26;66.75;101635.97;4998432;28;45386;-56
2021/10/17 01:19:32;;;;;;;;;15.00;8.25;;;;;11.24;66.96;101630.78;4997879;28;45538;-56
2021/10/17 01:21:57;;;;;;;;;30.00;23.75;;;;;11.21;67.07;101636.03;4999312;28;45342;-57
2021/10/17 01:24:22;;;;;;;;;25.75;23.00;;;;;11.18;66.87;101633.47;5000073;28;45219;-56
2021/10/17 01:26:48;;;;;;;;;26.50;21.25;;;;;11.17;67.37;101634.34;5000187;28;45406;-56
2021/10/17 01:29:14;;;;;;;;;29.25;22.00;;;;;11.13;66.79;101637.03;4999999;28;46313;-58
2021/10/17 01:31:45;;;;;;;;;25.75;22.25;;;;;11.10;67.31;101634.47;5000553;28;45420;-58
2021/10/17 01:34:11;;;;;;;;;27.75;22.00;;;;;11.05;66.60;101631.94;4999614;28;45358;-58
2021/10/17 01:36:38;;;;;;;;;27.25;22.25;;;;;10.95;67.61;101623.41;5000383;28;45248;-58
2021/10/17 01:39:05;;;;;;;;;34.00;30.00;;;;;10.94;67.37;101639.03;4998809;28;47209;-58
2021/10/17 01:41:30;;;;;;;;;26.50;22.75;;;;;10.88;67.46;101637.41;5000124;28;45679;-58
2021/10/17 01:44:09;;;;;;;;;26.50;23.25;;;;;10.83;68.04;101635.75;5000280;28;45522;-58
2021/10/17 01:46:35;;;;;;;;;27.75;24.75;;;;;10.78;68.05;101635.78;5000126;28;45318;-58
2021/10/17 01:49:04;;;;;;;;;28.75;27.00;;;;;10.76;68.31;101637.56;5000372;28;46392;-58
2021/10/17 01:51:30;;;;;;;;;32.75;30.25;;;;;10.75;69.11;101634.97;5000330;28;45365;-58
2021/10/17 01:53:55;;;;;;;;;31.50;26.75;;;;;10.75;69.68;101632.38;5000387;28;45222;-59
2021/10/17 01:56:20;;;;;;;;;32.25;26.00;;;;;10.74;68.76;101634.13;4991755;28;45421;-59
2021/10/17 01:58:46;;;;;;;;;29.75;25.00;;;;;10.71;68.84;101626.38;4999849;28;45415;-59
2021/10/17 02:01:11;;;;;;;;;36.25;28.25;;;;;10.70;69.13;101634.19;4990744;28;45460;-59
2021/10/17 02:03:36;;;;;;;;;28.75;26.00;;;;;10.68;68.92;101631.63;5000209;28;45517;-59
2021/10/17 02:06:02;;;;;;;;;33.00;25.00;;;;;10.65;69.19;101627.31;4997517;28;45504;-58
2021/10/17 02:08:28;;;;;;;;;29.75;25.25;;;;;10.62;70.88;101631.72;4999935;28;45323;-58
2021/10/17 02:10:54;;;;;;;;;28.25;27.00;;;;;10.59;69.87;101634.31;5000046;28;46030;-58
2021/10/17 02:13:19;;;;;;;;;31.25;22.75;;;;;10.55;71.33;101625.72;4999989;28;45504;-57
2021/10/17 02:15:45;;;;;;;;;28.00;23.50;;;;;10.53;70.18;101631.81;4999357;28;45486;-57
2021/10/17 02:18:10;;;;;;;;;22.50;20.75;;;;;10.50;70.23;101621.47;4999841;28;46207;-58
2021/10/17 02:20:36;;;;;;;;;27.75;22.50;;;;;10.47;71.01;101627.56;4999864;28;45315;-58
2021/10/17 02:23:04;;;;;;;;;27.25;22.25;;;;;10.45;71.56;101628.47;4999809;28;45463;-58
2021/10/17 02:25:33;;;;;;;;;24.75;20.25;;;;;10.41;71.55;101629.34;4999357;28;45491;-58
2021/10/17 02:27:59;;;;;;;;;28.50;22.75;;;;;10.35;71.32;101625.09;4999801;28;45426;-57
2021/10/17 02:30:25;;;;;;;;;27.25;25.25;;;;;10.34;71.31;101629.44;4999379;28;45254;-57
2021/10/17 02:32:50;;;;;;;;;27.00;18.25;;;;;10.33;70.95;101634.66;5000123;28;45320;-58
2021/10/17 02:35:16;;;;;;;;;27.00;24.00;;;;;10.32;71.19;101627.75;4999553;28;45440;-58
2021/10/17 02:37:42;;;;;;;;;27.00;23.75;;;;;10.32;70.86;101627.75;5009406;28;46276;-57
2021/10/17 02:40:08;;;;;;;;;25.00;20.25;;;;;10.32;71.54;101625.16;4999268;28;46008;-57
2021/10/17 02:42:34;;;;;;;;;31.50;27.75;;;;;10.34;70.89;101628.59;4999797;28;45266;-57
2021/10/17 02:44:59;;;;;;;;;28.25;21.75;;;;;10.32;71.36;101628.59;4999242;28;45413;-57
2021/10/17 02:47:26;;;;;;;;;26.50;24.00;;;;;10.34;70.81;101632.03;4999540;28;45624;-57
2021/10/17 02:49:52;;;;;;;;;36.25;28.75;;;;;10.32;71.23;101626.00;4999428;28;46005;-57
2021/10/17 02:52:17;;;;;;;;;36.75;29.75;;;;;10.32;71.12;101627.75;4999788;28;45342;-58
2021/10/17 02:54:43;;;;;;;;;36.00;29.00;;;;;10.28;70.96;101620.88;4999328;28;45380;-58
2021/10/17 02:57:08;;;;;;;;;28.75;24.25;;;;;10.27;71.04;101626.94;4998998;28;46348;-58
2021/10/17 02:59:33;;;;;;;;;23.00;21.50;;;;;10.25;71.15;101619.19;4999078;28;45326;-58
2021/10/17 03:01:59;;;;;;;;;32.75;27.25;;;;;10.25;71.63;101618.31;4997950;28;45393;-58
2021/10/17 03:04:24;;;;;;;;;26.50;24.50;;;;;10.22;71.76;101618.34;4998755;28;45333;-57
2021/10/17 03:06:49;;;;;;;;;28.00;24.25;;;;;10.19;71.88;101618.34;4999278;28;45334;-57
2021/10/17 03:09:15;;;;;;;;;34.25;24.00;;;;;10.17;71.51;101614.91;4997297;28;45460;-57
2021/10/17 03:11:40;;;;;;;;;23.75;19.75;;;;;10.15;71.82;101617.50;4999046;28;45432;-57
2021/10/17 03:14:05;;;;;;;;;26.25;25.50;;;;;10.15;71.41;101619.25;4998743;28;45350;-57
2021/10/17 03:16:31;;;;;;;;;28.25;25.00;;;;;10.14;72.25;101612.34;4998762;28;45446;-57
2021/10/17 03:18:56;;;;;;;;;26.50;23.00;;;;;10.15;71.56;101616.66;4998500;28;45315;-57
2021/10/17 03:21:22;;;;;;;;;31.50;26.00;;;;;10.14;71.85;101612.34;4999149;28;45391;-57
2021/10/17 03:23:48;;;;;;;;;32.25;26.50;;;;;10.14;72.05;101602.81;4998742;28;45282;-57
2021/10/17 03:26:13;;;;;;;;;29.00;23.50;;;;;10.14;71.78;101604.56;5000546;28;46163;-57
2021/10/17 03:28:39;;;;;;;;;31.25;24.50;;;;;10.12;72.17;101611.50;5002089;28;45255;-57
2021/10/17 03:31:07;;;;;;;;;26.75;24.00;;;;;10.10;71.74;101614.13;5002812;28;45291;-57
2021/10/17 03:33:32;;;;;;;;;33.00;28.00;;;;;10.09;72.96;101606.34;5001996;28;45354;-57
2021/10/17 03:35:58;;;;;;;;;30.25;27.50;;;;;10.05;72.92;101606.38;5007339;28;45365;-57
2021/10/17 03:38:23;;;;;;;;;27.25;23.75;;;;;10.00;73.39;101604.69;5007096;28;45271;-57
2021/10/17 03:40:48;;;;;;;;;29.25;22.25;;;;;9.97;73.22;101594.34;5002420;28;45318;-57
2021/10/17 03:43:14;;;;;;;;;31.75;30.00;;;;;9.95;73.41;101593.50;5002047;28;45360;-57
2021/10/17 03:45:40;;;;;;;;;30.50;24.25;;;;;9.93;72.85;101588.34;5002024;28;45344;-57
2021/10/17 03:48:06;;;;;;;;;29.50;24.75;;;;;9.95;73.54;101578.78;5002108;28;45361;-57
2021/10/17 03:50:31;;;;;;;;;30.00;25.50;;;;;9.95;72.93;101594.38;5002454;28;45397;-57
2021/10/17 03:52:57;;;;;;;;;29.75;25.00;;;;;9.95;73.53;101591.78;5002084;28;45501;-57
2021/10/17 03:55:22;;;;;;;;;34.25;31.00;;;;;9.94;73.24;101582.25;4998773;28;45983;-57
2021/10/17 03:57:47;;;;;;;;;32.25;29.25;;;;;9.91;73.71;101582.31;4997368;28;45347;-57
2021/10/17 04:00:13;;;;;;;;;29.00;24.25;;;;;9.89;73.91;101589.25;4998729;28;45285;-58
2021/10/17 04:02:38;;;;;;;;;28.25;26.75;;;;;9.88;74.02;101605.72;4995854;28;45256;-57
2021/10/17 04:05:04;;;;;;;;;33.75;27.25;;;;;9.89;73.52;101603.97;5001570;28;46122;-57
2021/10/17 04:07:29;;;;;;;;;31.75;26.00;;;;;9.89;73.81;101593.59;5002017;28;45334;-57
2021/10/17 04:09:54;;;;;;;;;26.25;23.50;;;;;9.89;73.73;101598.78;4997703;28;45353;-58
2021/10/17 04:12:20;;;;;;;;;26.75;23.50;;;;;9.88;74.28;101602.25;4999233;28;45406;-58
2021/10/17 04:14:45;;;;;;;;;38.50;31.25;;;;;9.88;73.83;101584.09;5001068;28;45285;-57
2021/10/17 04:17:10;;;;;;;;;29.00;26.75;;;;;9.83;76.20;101589.34;5001623;28;45238;-57
2021/10/17 04:19:36;;;;;;;;;26.75;23.25;;;;;9.77;75.17;101584.19;5001594;28;45266;-57
2021/10/17 04:22:01;;;;;;;;;38.00;30.25;;;;;9.76;75.37;101587.66;5001845;28;45227;-57
2021/10/17 04:24:27;;;;;;;;;62.50;46.25;;;;;9.74;74.64;101587.69;5000057;28;45272;-57
2021/10/17 04:26:52;;;;;;;;;41.75;31.75;;;;;9.74;74.88;101577.28;5001130;28;45412;-57
2021/10/17 04:29:18;;;;;;;;;69.25;51.25;;;;;9.72;75.24;101581.66;5000299;28;45448;-57
2021/10/17 04:31:43;;;;;;;;;30.50;27.50;;;;;9.72;76.54;101584.25;5001172;28;45271;-57
2021/10/17 04:34:09;;;;;;;;;36.25;30.00;;;;;9.69;75.89;101576.50;5000572;28;45598;-57
2021/10/17 04:36:35;;;;;;;;;34.25;31.25;;;;;9.70;75.08;101587.72;5010378;28;45381;-58
2021/10/17 04:39:01;;;;;;;;;36.00;32.75;;;;;9.69;75.46;101586.00;4999742;28;45323;-57
2021/10/17 04:41:26;;;;;;;;;34.50;26.00;;;;;9.69;74.93;101576.50;5000732;28;45430;-57
2021/10/17 04:43:52;;;;;;;;;30.25;24.50;;;;;9.67;75.76;101582.56;5000242;28;46175;-56
2021/10/17 04:46:17;;;;;;;;;35.25;27.50;;;;;9.64;75.70;101585.22;5001118;28;45196;-56
2021/10/17 04:48:43;;;;;;;;;37.50;31.25;;;;;9.65;75.48;101595.56;5001069;28;45247;-57
2021/10/17 04:51:08;;;;;;;;;35.25;28.25;;;;;9.66;75.35;101594.69;5000988;28;45149;-56
2021/10/17 04:53:33;;;;;;;;;34.75;29.00;;;;;9.67;75.14;101592.97;5000618;28;45227;-56
2021/10/17 04:55:59;;;;;;;;;34.75;28.50;;;;;9.67;75.51;101595.56;4992736;28;45276;-56
2021/10/17 04:58:27;;;;;;;;;36.00;28.75;;;;;9.66;74.60;101599.03;4983319;28;45818;-56
2021/10/17 05:00:52;;;;;;;;;35.25;29.50;;;;;9.62;74.83;101595.59;4992687;28;45512;-56
2021/10/17 05:03:17;;;;;;;;;34.25;31.00;;;;;9.61;74.84;101596.47;4999382;28;46309;-56
2021/10/17 05:05:43;;;;;;;;;37.25;29.50;;;;;9.59;75.04;101597.34;5001114;28;45308;-55
2021/10/17 05:08:08;;;;;;;;;27.50;25.25;;;;;9.56;75.05;101600.84;5000851;28;45738;-56
2021/10/17 05:10:34;;;;;;;;;36.75;29.75;;;;;9.55;75.41;101596.53;5001272;28;45599;-55
2021/10/17 05:13:00;;;;;;;;;32.00;23.50;;;;;9.52;75.09;101593.09;5000668;28;45365;-58
2021/10/17 05:15:25;;;;;;;;;30.50;25.75;;;;;9.50;75.15;101593.13;4996809;28;45493;-58
2021/10/17 05:17:51;;;;;;;;;38.50;30.25;;;;;9.47;75.13;101594.88;5000915;28;45310;-58
2021/10/17 05:20:16;;;;;;;;;26.75;26.75;;;;;9.46;75.44;101588.84;5001076;28;45453;-58
2021/10/17 05:22:41;;;;;;;;;29.00;25.25;;;;;9.43;74.95;101589.72;5000767;28;45468;-58
2021/10/17 05:25:07;;;;;;;;;34.00;28.75;;;;;9.43;75.25;101592.31;5000649;28;45282;-58
2021/10/17 05:27:33;;;;;;;;;37.50;30.75;;;;;9.41;75.38;101588.88;5000954;28;45275;-57
2021/10/17 05:29:58;;;;;;;;;31.75;28.00;;;;;9.39;76.20;101588.00;5000645;28;45428;-58
2021/10/17 05:32:24;;;;;;;;;39.00;31.00;;;;;9.37;76.36;101592.34;4980819;28;45507;-57
2021/10/17 05:34:49;;;;;;;;;34.25;26.75;;;;;9.34;76.34;101600.16;5000104;28;45328;-61
2021/10/17 05:37:14;;;;;;;;;27.50;22.75;;;;;9.34;76.47;101597.56;5010272;28;45238;-61
2021/10/17 05:39:40;;;;;;;;;37.25;31.50;;;;;9.33;75.96;101603.63;5000623;28;45381;-60
2021/10/17 05:42:05;;;;;;;;;31.00;28.00;;;;;9.32;76.41;101595.88;5000246;28;46171;-60
2021/10/17 05:44:31;;;;;;;;;32.25;25.50;;;;;9.31;76.66;101605.38;4999757;28;45221;-61
2021/10/17 05:46:56;;;;;;;;;32.25;28.00;;;;;9.29;76.91;101606.28;4999729;28;45428;-60
2021/10/17 05:49:21;;;;;;;;;32.75;29.50;;;;;9.27;76.57;101605.44;4999403;28;45483;-59
2021/10/17 05:51:47;;;;;;;;;32.25;27.00;;;;;9.25;78.58;101609.78;5000419;28;46099;-60
2021/10/17 05:54:12;;;;;;;;;33.75;28.50;;;;;9.21;77.46;101608.94;4999469;28;45489;-59
2021/10/17 05:56:37;;;;;;;;;27.00;24.25;;;;;9.20;77.68;101608.94;4983272;28;45500;-60
2021/10/17 05:59:03;;;;;;;;;34.75;26.75;;;;;9.15;78.06;101607.25;5000202;28;45487;-59
2021/10/17 06:01:28;;;;;;;;;31.75;26.50;;;;;9.14;77.45;101607.25;4998519;28;45991;-60
2021/10/17 06:03:53;;;;;;;;;36.00;27.75;;;;;9.13;77.33;101608.13;5000354;28;45312;-59
2021/10/17 06:06:19;;;;;;;;;30.50;25.75;;;;;9.13;77.69;101608.13;5000494;28;45448;-61
2021/10/17 06:08:46;;;;;;;;;31.25;25.00;;;;;9.11;76.43;101608.13;4999640;28;45460;-61
2021/10/17 06:11:11;;;;;;;;;33.25;28.50;;;;;9.09;78.33;101609.03;4997054;28;46233;-61
2021/10/17 06:13:37;;;;;;;;;32.75;28.75;;;;;9.05;77.83;101612.53;5000105;28;45274;-60
2021/10/17 06:16:03;;;;;;;;;25.75;20.50;;;;;9.00;77.13;101615.13;4998148;28;45326;-61
2021/10/17 06:18:28;;;;;;;;;30.50;24.00;;;;;8.98;76.93;101616.00;4998811;28;45364;-62
2021/10/17 06:20:54;;;;;;;;;38.00;30.75;;;;;8.96;76.96;101617.75;4999709;28;46350;-61
2021/10/17 06:23:19;;;;;;;;;29.50;25.50;;;;;8.95;77.39;101621.22;4999867;28;45231;-61
2021/10/17 06:25:45;;;;;;;;;23.25;20.75;;;;;8.95;77.42;101631.59;5000066;28;45292;-62
2021/10/17 06:28:10;;;;;;;;;25.50;22.75;;;;;8.97;78.30;101630.69;4993064;28;45668;-58
2021/10/17 06:30:35;;;;;;;;;33.00;22.50;;;;;8.98;78.03;101636.75;4999016;28;46167;-59
2021/10/17 06:33:01;;;;;;;;;33.50;27.25;;;;;9.00;77.38;101629.81;4996330;28;45452;-58
2021/10/17 06:35:26;;;;;;;;;28.25;24.25;;;;;9.02;77.28;101633.28;4994723;28;45573;-60
2021/10/17 06:37:51;;;;;;;;;36.00;26.75;;;;;9.03;77.58;101638.47;4996359;28;45654;-57
2021/10/17 06:40:17;;;;;;;;;32.50;26.25;;;;;9.06;77.04;101642.75;4995043;28;46103;-59
2021/10/17 06:42:42;;;;;;;;;32.75;25.50;;;;;9.08;77.03;101638.41;4994440;28;45493;-58
2021/10/17 06:45:08;;;;;;;;;25.25;22.50;;;;;9.10;77.36;101647.03;4999242;28;45342;-57
2021/10/17 06:47:33;;;;;;;;;33.75;27.50;;;;;9.13;77.54;101647.88;4999526;28;45598;-57
2021/10/17 06:49:58;;;;;;;;;33.00;27.50;;;;;9.16;76.87;101657.38;4999285;28;45410;-57
2021/10/17 06:52:24;;;;;;;;;26.50;22.50;;;;;9.15;76.99;101655.66;4999761;28;45398;-56
2021/10/17 06:54:49;;;;;;;;;39.00;31.50;;;;;9.21;76.94;101665.09;4999290;28;45745;-63
2021/10/17 06:57:14;;;;;;;;;31.25;23.75;;;;;9.24;77.21;101658.19;4999400;28;45409;-61
2021/10/17 06:59:40;;;;;;;;;37.50;25.50;;;;;9.25;76.94;101659.06;4998487;28;45293;-59
2021/10/17 07:02:05;;;;;;;;;30.50;26.00;;;;;9.26;76.89;101659.03;4993281;28;45464;-58
2021/10/17 07:04:31;;;;;;;;;35.25;27.25;;;;;9.28;76.72;101662.47;5002567;28;45312;-61
2021/10/17 07:06:56;;;;;;;;;30.00;23.25;;;;;9.32;77.22;101668.50;5002861;28;45515;-61
2021/10/17 07:09:21;;;;;;;;;27.25;23.00;;;;;9.35;76.67;101666.75;5003184;28;46200;-63
2021/10/17 07:11:47;;;;;;;;;33.00;28.00;;;;;9.39;76.71;101665.84;5002889;28;45397;-63
2021/10/17 07:14:12;;;;;;;;;36.75;32.50;;;;;9.38;76.75;101664.13;5002588;28;45525;-63
2021/10/17 07:16:37;;;;;;;;;39.50;32.00;;;;;9.45;76.87;101671.00;5002743;28;45520;-62
2021/10/17 07:19:03;;;;;;;;;32.00;27.00;;;;;9.51;76.96;101661.44;4999484;28;46013;-61
2021/10/17 07:21:28;;;;;;;;;31.50;28.00;;;;;9.55;76.23;101663.97;5002572;28;45302;-63
2021/10/17 07:23:53;;;;;;;;;35.25;29.75;;;;;9.59;76.30;101668.28;5002559;28;45294;-61
2021/10/17 07:26:19;;;;;;;;;31.50;27.00;;;;;9.64;76.35;101671.72;5002693;28;45269;-62
2021/10/17 07:28:44;;;;;;;;;37.75;33.25;;;;;9.72;76.44;101674.22;5002047;28;46037;-59
2021/10/17 07:31:10;;;;;;;;;26.50;25.50;;;;;9.79;76.06;101670.69;5002595;28;45295;-61
2021/10/17 07:33:36;;;;;;;;;35.25;26.50;;;;;9.91;76.28;101672.31;5002522;28;46007;-61
2021/10/17 07:36:01;;;;;;;;;32.75;29.50;;;;;10.00;75.83;101670.47;5007974;28;45478;-62
2021/10/17 07:38:26;;;;;;;;;30.75;26.75;;;;;10.11;75.94;101674.72;5007176;28;45198;-63
2021/10/17 07:40:52;;;;;;;;;41.75;32.75;;;;;10.24;75.88;101682.41;5002288;28;45326;-62
2021/10/17 07:43:17;;;;;;;;;45.00;33.50;;;;;10.35;75.33;101677.06;5001400;28;45350;-59
2021/10/17 07:45:43;;;;;;;;;33.75;28.00;;;;;10.43;75.54;101677.84;5002061;28;45381;-63
2021/10/17 07:48:11;;;;;;;;;35.00;30.50;;;;;10.53;75.26;101681.19;5002084;28;46803;-60
2021/10/17 07:50:37;;;;;;;;;39.00;34.25;;;;;10.55;74.81;101675.09;5002332;28;45297;-56
2021/10/17 07:53:03;;;;;;;;;34.50;29.25;;;;;10.62;74.64;101675.91;5001009;28;45436;-55
2021/10/17 07:55:29;;;;;;;;;35.25;30.75;;;;;10.71;74.20;101674.91;5001245;28;45254;-56
2021/10/17 07:57:55;;;;;;;;;35.75;29.75;;;;;10.82;74.36;101670.44;5001598;28;46254;-56
2021/10/17 08:00:23;;;;;;;;;32.75;27.75;;;;;10.92;74.15;101679.81;5000342;28;45454;-56
2021/10/17 08:02:49;;;;;;;;;39.75;32.00;;;;;11.03;74.05;101671.88;5000750;28;45476;-56
2021/10/17 08:05:15;;;;;;;;;38.25;33.25;;;;;11.12;73.50;101671.72;4989347;28;45421;-57
2021/10/17 08:07:40;;;;;;;;;35.75;28.25;;;;;11.21;73.72;101667.25;5001178;28;46519;-61
2021/10/17 08:10:10;;;;;;;;;42.50;35.00;;;;;11.36;73.28;101668.75;4997930;28;45367;-55
2021/10/17 08:12:37;;;;;;;;;37.75;34.00;;;;;11.48;72.90;101665.09;5001390;28;45290;-55
2021/10/17 08:15:03;;;;;;;;;41.75;35.00;;;;;11.63;73.04;101669.19;4984096;28;45776;-59
2021/10/17 08:17:28;;;;;;;;;36.25;32.75;;;;;11.74;72.50;101669.84;4986098;28;45522;-59
2021/10/17 08:19:54;;;;;;;;;33.50;30.75;;;;;11.87;72.16;101674.88;4982193;28;45399;-61
2021/10/17 08:22:20;;;;;;;;;34.75;31.50;;;;;12.03;72.16;101669.38;4979396;28;45824;-57
2021/10/17 08:24:46;;;;;;;;;48.00;34.00;;;;;12.21;71.73;101679.44;4981627;28;45294;-59
2021/10/17 08:27:11;;;;;;;;;35.00;30.00;;;;;12.38;70.96;101673.91;4981676;28;45544;-58
2021/10/17 08:29:37;;;;;;;;;44.50;36.00;;;;;12.57;70.83;101677.00;4982019;28;45303;-59
2021/10/17 08:32:02;;;;;;;;;39.75;35.50;;;;;12.69;70.17;101682.81;4982071;28;45339;-57
2021/10/17 08:34:28;;;;;;;;;35.00;32.50;;;;;12.78;69.99;101661.75;4981950;28;45144;-58
2021/10/17 08:36:53;;;;;;;;;36.50;30.50;;;;;12.92;69.56;101668.41;4991537;28;45221;-57
2021/10/17 08:39:18;;;;;;;;;31.50;25.25;;;;;13.05;69.31;101662.91;4981792;28;45250;-56
2021/10/17 08:41:46;;;;;;;;;42.00;34.00;;;;;13.23;68.76;101658.19;4981478;28;45223;-55
2021/10/17 08:44:12;;;;;;;;;28.00;25.25;;;;;13.37;67.57;101653.47;4981709;28;45170;-54
2021/10/17 08:46:39;;;;;;;;;35.25;32.75;;;;;13.48;67.47;101658.44;4981403;28;46379;-55
2021/10/17 08:49:05;;;;;;;;;55.00;42.50;;;;;13.58;66.70;101647.69;4981790;28;45453;-55
2021/10/17 08:51:30;;;;;;;;;27.50;24.00;;;;;13.66;66.68;101655.38;4981648;28;45495;-55
2021/10/17 08:53:56;;;;;;;;;24.50;23.25;;;;;13.66;64.91;101666.66;4981830;28;45397;-56
2021/10/17 08:56:21;;;;;;;;;20.75;20.00;;;;;13.68;65.02;101662.25;4980928;28;46167;-55
2021/10/17 08:58:46;;;;;;;;;29.00;22.00;;;;;13.75;63.64;101655.09;4981273;28;45441;-54
2021/10/17 09:01:17;;;;;;;;;25.00;23.75;;;;;13.84;64.05;101657.50;4979997;28;45295;-54
2021/10/17 09:03:50;;;;;;;;;28.50;24.00;;;;;13.95;63.32;101652.81;4970061;28;45567;-55
2021/10/17 09:06:26;;;;;;;;;22.75;20.25;;;;;14.09;62.50;101657.69;4981237;28;46206;-56
2021/10/17 09:09:15;;;;;;;;;21.00;17.50;;;;;14.20;61.41;101667.84;4979560;28;46065;-56
2021/10/17 09:11:46;;;;;;;;;26.50;19.50;;;;;14.28;61.67;101661.50;4981077;28;45382;-57
2021/10/17 09:14:15;;;;;;;;;26.25;22.00;;;;;14.46;60.44;101667.16;4981044;28;45290;-57
2021/10/17 09:16:43;;;;;;;;;21.75;19.25;;;;;14.55;60.31;101666.88;4970592;28;45959;-56
2021/10/17 09:19:13;;;;;;;;;27.25;25.00;;;;;14.69;59.70;101659.50;4980941;28;45386;-56
2021/10/17 09:22:01;;;;;;;;;22.00;20.00;;;;;14.78;59.94;101666.19;4981295;28;45298;-56
2021/10/17 09:24:39;;;;;;;;;31.25;24.50;;;;;14.87;59.26;101655.47;4977294;28;45752;-58
2021/10/17 09:27:10;;;;;;;;;26.00;24.25;;;;;15.00;59.75;101656.78;4980994;28;45482;-61
2021/10/17 09:29:37;;;;;;;;;24.00;23.75;;;;;15.16;58.33;101654.53;4991279;28;45847;-55
2021/10/17 09:32:12;;;;;;;;;25.00;25.00;;;;;15.31;58.22;101656.69;4981313;28;45414;-56
2021/10/17 09:34:37;;;;;;;;;22.75;17.00;;;;;15.35;56.29;101658.28;4981036;28;45246;-56
2021/10/17 09:37:13;;;;;;;;;23.50;21.00;;;;;15.29;55.73;101655.88;4990512;28;46292;-57
2021/10/17 09:39:46;;;;;;;;;25.25;21.50;;;;;15.36;56.07;101648.66;4980864;28;45171;-57
2021/10/17 09:42:20;;;;;;;;;26.25;23.00;;;;;15.53;55.95;101649.81;4981039;28;45448;-57
2021/10/17 09:44:46;;;;;;;;;27.25;22.50;;;;;15.77;55.58;101652.53;4980678;28;45322;-56
2021/10/17 09:47:11;;;;;;;;;23.00;22.00;;;;;16.25;54.92;101659.59;4980946;28;45539;-56
2021/10/17 09:49:37;;;;;;;;;25.00;22.25;;;;;16.58;52.66;101645.22;4980833;28;45325;-57
2021/10/17 09:52:16;;;;;;;;;26.00;22.50;;;;;16.68;53.54;101638.75;4981177;28;45354;-56
2021/10/17 09:54:45;;;;;;;;;30.00;23.00;;;;;16.74;53.00;101640.28;4980625;28;45235;-59
2021/10/17 09:57:10;;;;;;;;;20.50;18.25;;;;;16.86;52.39;101636.31;4980608;28;45322;-58
2021/10/17 09:59:36;;;;;;;;;23.75;20.75;;;;;17.03;52.70;101636.53;4980253;28;45470;-58
2021/10/17 10:02:07;;;;;;;;;21.50;19.75;;;;;17.28;51.15;101639.00;4979023;28;45450;-58
2021/10/17 10:04:35;;;;;;;;;19.25;18.00;;;;;17.70;50.51;101649.53;4980264;28;45370;-58
2021/10/17 10:07:01;;;;;;;;;21.00;20.00;;;;;18.04;49.27;101650.72;4976761;28;45523;-58
2021/10/17 10:09:28;;;;;;;;;26.75;20.50;;;;;18.35;49.71;101660.69;4979504;28;45431;-58
2021/10/17 10:11:55;;;;;;;;;19.75;18.50;;;;;19.35;49.45;101648.03;4978858;28;45192;-57
2021/10/17 10:14:22;;;;;;;;;20.25;17.75;;;;;19.52;47.16;101649.84;4978642;28;45432;-57
2021/10/17 10:16:53;;;;;;;;;17.00;15.00;;;;;19.24;46.77;101645.09;4991048;28;45400;-56
2021/10/17 10:19:18;;;;;;;;;17.50;17.00;;;;;18.96;46.53;101647.34;4999825;28;45417;-57
2021/10/17 10:21:44;;;;;;;;;19.00;17.00;;;;;18.92;46.41;101643.16;5000262;28;45418;-58
2021/10/17 10:24:12;;;;;;;;;25.25;19.00;;;;;19.34;46.21;101645.47;4999697;28;45476;-57
2021/10/17 10:26:40;;;;;;;;;18.50;15.75;;;;;20.06;45.38;101645.34;4997199;28;45274;-57
2021/10/17 10:29:05;;;;;;;;;20.75;16.75;;;;;20.48;44.48;101644.00;4999541;28;45717;-57
2021/10/17 10:31:39;;;;;;;;;17.00;16.50;;;;;20.63;44.09;101641.38;4999689;28;45402;-57
2021/10/17 10:34:06;;;;;;;;;14.75;12.50;;;;;20.65;43.54;101638.66;4999568;28;45344;-60
2021/10/17 10:36:42;;;;;;;;;15.00;14.25;;;;;20.40;42.96;101638.25;4999254;28;46382;-61
2021/10/17 10:39:10;;;;;;;;;15.00;13.75;;;;;20.24;43.22;101628.53;4999337;28;45348;-58
2021/10/17 10:41:54;;;;;;;;;13.75;13.25;;;;;20.79;43.51;101622.88;4999152;28;45254;-58
2021/10/17 10:44:32;;;;;;;;;21.00;17.00;;;;;21.29;41.46;101624.47;4999514;28;45550;-58
2021/10/17 10:47:18;;;;;;;;;16.25;13.00;;;;;20.96;41.14;101620.13;4999348;28;46074;-59
2021/10/17 10:49:46;;;;;;;;;11.75;10.50;;;;;20.80;42.25;101613.16;4999284;28;45824;-58
2021/10/17 10:52:23;;;;;;;;;16.50;16.50;;;;;21.10;42.15;101621.16;4999198;28;45329;-59
2021/10/17 10:54:53;;;;;;;;;18.25;16.75;;;;;20.95;41.09;101620.22;4996904;28;45313;-60
2021/10/17 10:57:24;;;;;;;;;15.25;13.75;;;;;20.76;41.47;101622.19;4999118;28;46190;-58
2021/10/17 11:00:06;;;;;;;;;17.75;13.50;;;;;20.71;41.92;101618.97;4999017;28;45662;-58
2021/10/17 11:02:33;;;;;;;;;15.75;12.75;;;;;20.67;41.33;101622.72;4992988;28;45472;-58
2021/10/17 11:05:00;;;;;;;;;37.75;32.50;;;;;20.49;41.40;101624.59;4999054;28;45410;-60
2021/10/17 11:07:41;;;;;;;;;21.00;19.25;;;;;20.19;41.23;101625.25;4998707;28;45337;-58
2021/10/17 11:10:33;;;;;;;;;31.75;27.75;;;;;19.90;41.95;101623.31;4995150;28;45531;-58